Time;durP1;ratioP1;P1;durP2;ratioP2;P2;SDS_P1;SDS_P2;PMS_P1;PMS_P2;Temp;Humidity;BMP_temperature;BMP_pressure;BME280_temperature;BME280_humidity;BME280_pressure;Samples;Min_cycle;Max_cycle;Signal;HPM_P1;HPM_P2
2024/03/08 00:01:44;;;;;;;6.80;2.67;;;21.10;99.90;;;;;;4948341;28;20048;-55
2024/03/08 00:04:10;;;;;;;5.07;1.90;;;21.10;99.90;;;;;;4950750;29;20028;-53
2024/03/08 00:06:36;;;;;;;6.65;2.03;;;21.10;99.90;;;;;;4955500;28;20086;-53
2024/03/08 00:09:02;;;;;;;5.32;2.05;;;21.10;99.90;;;;;;4954844;28;20034;-53
2024/03/08 00:11:27;;;;;;;6.55;2.63;;;21.10;99.90;;;;;;4951965;28;20035;-54
2024/03/08 00:13:53;;;;;;;6.32;2.95;;;21.10;99.90;;;;;;4955314;28;20027;-54
2024/03/08 00:16:19;;;;;;;7.22;2.50;;;21.10;99.90;;;;;;4954384;28;20027;-53
2024/03/08 00:18:45;;;;;;;4.03;2.15;;;21.10;99.90;;;;;;4955048;28;20062;-54
2024/03/08 00:21:11;;;;;;;3.20;1.80;;;21.10;99.90;;;;;;4955317;28;20027;-51
2024/03/08 00:23:37;;;;;;;5.78;2.25;;;21.10;99.90;;;;;;4955702;28;20523;-53
2024/03/08 00:26:04;;;;;;;3.97;1.77;;;21.10;99.90;;;;;;4954234;28;20031;-53
2024/03/08 00:28:30;;;;;;;3.95;2.20;;;21.10;99.90;;;;;;4954990;28;20118;-53
2024/03/08 00:30:56;;;;;;;4.88;2.08;;;21.10;99.90;;;;;;4954670;28;20051;-54
2024/03/08 00:33:22;;;;;;;6.43;2.17;;;21.10;99.90;;;;;;4954787;28;20081;-56
2024/03/08 00:35:48;;;;;;;3.95;1.63;;;21.10;99.90;;;;;;4954870;28;20023;-54
2024/03/08 00:38:14;;;;;;;7.03;2.30;;;21.00;99.90;;;;;;4954881;28;20031;-55
2024/03/08 00:40:40;;;;;;;30.73;2.65;;;21.00;99.90;;;;;;4954381;28;20042;-56
2024/03/08 00:43:06;;;;;;;3.92;2.17;;;21.00;99.90;;;;;;4955001;28;20019;-55
2024/03/08 00:45:32;;;;;;;4.90;2.03;;;21.00;99.90;;;;;;4954571;28;20097;-55
2024/03/08 00:47:57;;;;;;;3.22;1.80;;;21.00;99.90;;;;;;4919938;28;20039;-58
2024/03/08 00:50:23;;;;;;;3.85;1.90;;;21.00;99.90;;;;;;4954896;28;20023;-56
2024/03/08 00:52:50;;;;;;;3.78;2.00;;;20.90;99.90;;;;;;4954414;28;20034;-57
2024/03/08 00:55:15;;;;;;;3.17;1.73;;;20.90;99.90;;;;;;4937117;29;20019;-56
2024/03/08 00:57:41;;;;;;;3.53;1.95;;;20.90;99.90;;;;;;4954458;28;20495;-56
2024/03/08 01:00:11;;;;;;;4.75;2.10;;;21.00;99.90;;;;;;4954755;28;20016;-57
2024/03/08 01:02:41;;;;;;;3.92;2.05;;;20.90;99.90;;;;;;4982289;23;20566;-42
2024/03/08 01:05:07;;;;;;;5.53;1.80;;;20.90;99.90;;;;;;4973954;28;20025;-43
2024/03/08 01:07:35;;;;;;;3.22;2.17;;;20.90;99.90;;;;;;4956640;28;20490;-43
2024/03/08 01:10:04;;;;;;;2.50;1.60;;;20.80;99.90;;;;;;4973285;28;20058;-43
2024/03/08 01:12:30;;;;;;;4.03;2.13;;;20.80;99.90;;;;;;4973589;28;20035;-43
2024/03/08 01:14:57;;;;;;;7.15;2.05;;;20.80;99.90;;;;;;4956676;28;20105;-43
2024/03/08 01:17:24;;;;;;;4.03;1.88;;;20.80;99.90;;;;;;4956097;28;20023;-44
2024/03/08 01:19:49;;;;;;;4.90;1.90;;;20.70;99.90;;;;;;4973196;28;20034;-43
2024/03/08 01:22:15;;;;;;;6.45;2.28;;;20.70;99.90;;;;;;4973692;28;20419;-43
2024/03/08 01:24:41;;;;;;;4.97;1.80;;;20.70;99.90;;;;;;4973281;28;20415;-43
2024/03/08 01:27:09;;;;;;;2.85;1.60;;;20.70;99.90;;;;;;4973459;28;20387;-42
2024/03/08 01:29:34;;;;;;;3.95;2.00;;;20.70;99.90;;;;;;4955925;28;20073;-42
2024/03/08 01:32:01;;;;;;;3.25;1.73;;;20.60;99.90;;;;;;4972891;28;20121;-43
2024/03/08 01:34:28;;;;;;;3.03;2.08;;;20.60;99.90;;;;;;4973114;28;20019;-43
2024/03/08 01:36:56;;;;;;;3.20;1.30;;;20.60;99.90;;;;;;4973519;28;20027;-43
2024/03/08 01:39:22;;;;;;;3.58;1.05;;;20.60;99.90;;;;;;4973228;28;20044;-43
2024/03/08 01:41:48;;;;;;;4.30;1.45;;;20.60;99.90;;;;;;4973026;28;20038;-44
2024/03/08 01:44:17;;;;;;;1.60;1.40;;;20.60;99.90;;;;;;4973090;28;20030;-43
2024/03/08 01:46:45;;;;;;;3.40;1.40;;;20.60;99.90;;;;;;4973056;28;20034;-43
2024/03/08 01:49:11;;;;;;;2.88;1.45;;;20.50;99.90;;;;;;4972864;28;20031;-43
2024/03/08 01:51:40;;;;;;;3.70;1.52;;;20.50;99.90;;;;;;4972819;28;20141;-50
2024/03/08 01:54:07;;;;;;;2.28;1.30;;;20.50;99.90;;;;;;4973272;28;20027;-45
2024/03/08 01:56:33;;;;;;;2.42;1.35;;;20.50;99.90;;;;;;4972825;28;20431;-41
2024/03/08 01:58:59;;;;;;;3.45;1.67;;;20.50;99.90;;;;;;4973148;28;20073;-43
2024/03/08 02:01:25;;;;;;;4.07;1.23;;;20.40;99.90;;;;;;4976548;23;20156;-50
2024/03/08 02:03:51;;;;;;;3.33;1.67;;;20.40;99.90;;;;;;4953245;29;20100;-51
2024/03/08 02:06:17;;;;;;;3.35;1.48;;;20.40;99.90;;;;;;4953476;28;20019;-51
2024/03/08 02:08:44;;;;;;;3.42;1.50;;;20.40;99.90;;;;;;4953348;29;20041;-53
2024/03/08 02:11:11;;;;;;;4.78;1.45;;;20.40;99.90;;;;;;4953221;28;20019;-52
2024/03/08 02:13:36;;;;;;;2.53;1.42;;;20.40;99.90;;;;;;4953020;28;20039;-52
2024/03/08 02:16:04;;;;;;;2.35;1.45;;;20.40;99.90;;;;;;4953754;29;20439;-56
2024/03/08 02:18:30;;;;;;;5.18;1.17;;;20.40;99.90;;;;;;4953006;29;20023;-53
2024/03/08 02:21:00;;;;;;;2.15;1.30;;;20.40;99.90;;;;;;4953996;29;20028;-53
2024/03/08 02:23:27;;;;;;;2.50;1.50;;;20.40;99.90;;;;;;4953488;29;20499;-51
2024/03/08 02:25:54;;;;;;;2.47;1.40;;;20.40;99.90;;;;;;4953510;28;20112;-50
2024/03/08 02:28:20;;;;;;;3.92;1.38;;;20.40;99.90;;;;;;4935678;29;20090;-49
2024/03/08 02:30:47;;;;;;;1.73;0.98;;;20.30;99.90;;;;;;4953139;29;20547;-52
2024/03/08 02:33:17;;;;;;;2.33;1.20;;;20.40;99.90;;;;;;4951796;28;20027;-51
2024/03/08 02:35:46;;;;;;;1.70;1.05;;;20.30;99.90;;;;;;4931577;29;20111;-53
2024/03/08 02:38:16;;;;;;;2.33;1.45;;;20.30;99.90;;;;;;4941052;28;20494;-49
2024/03/08 02:40:43;;;;;;;2.92;1.35;;;20.30;99.90;;;;;;4926784;29;20031;-49
2024/03/08 02:43:14;;;;;;;3.75;1.60;;;20.30;99.90;;;;;;4944339;29;20063;-50
2024/03/08 02:45:41;;;;;;;1.98;1.20;;;20.30;99.90;;;;;;4943523;29;20086;-50
2024/03/08 02:48:08;;;;;;;2.13;1.02;;;20.40;99.90;;;;;;4950469;29;20046;-50
2024/03/08 02:50:37;;;;;;;2.08;1.23;;;20.40;99.90;;;;;;4953281;28;20147;-51
2024/03/08 02:53:03;;;;;;;2.22;1.13;;;20.40;99.90;;;;;;4932140;29;20031;-51
2024/03/08 02:55:30;;;;;;;2.03;1.13;;;20.30;99.90;;;;;;4948709;29;20028;-51
2024/03/08 02:57:56;;;;;;;2.42;1.05;;;20.30;99.90;;;;;;4945281;29;20023;-50
2024/03/08 03:02:56;;;;;;;3.00;1.60;;;20.30;99.90;;;;;;4983348;28;20053;-54
2024/03/08 03:05:23;;;;;;;4.72;1.40;;;20.30;99.90;;;;;;4988973;28;20564;-55
2024/03/08 03:07:49;;;;;;;3.25;1.75;;;20.30;99.90;;;;;;4986078;28;20031;-55
2024/03/08 03:10:18;;;;;;;1.77;1.02;;;20.30;99.90;;;;;;4973471;28;20057;-55
2024/03/08 03:12:51;;;;;;;2.08;1.10;;;20.30;99.90;;;;;;4973125;28;20459;-56
2024/03/08 03:15:17;;;;;;;2.47;1.38;;;20.30;99.90;;;;;;4992433;28;20038;-55
2024/03/08 03:17:47;;;;;;;1.38;1.10;;;20.30;99.90;;;;;;4970129;28;20041;-55
2024/03/08 03:20:14;;;;;;;4.43;1.45;;;20.30;99.90;;;;;;4956570;28;20355;-54
2024/03/08 03:22:41;;;;;;;3.50;1.27;;;20.30;99.90;;;;;;4969882;28;20054;-55
2024/03/08 03:25:09;;;;;;;3.10;1.08;;;20.30;99.90;;;;;;4970511;28;20474;-55
2024/03/08 03:27:35;;;;;;;3.08;1.17;;;20.30;99.90;;;;;;4987282;28;20046;-54
2024/03/08 03:30:20;;;;;;;1.95;1.33;;;20.30;99.90;;;;;;4979270;28;20495;-54
2024/03/08 03:32:47;;;;;;;3.15;1.75;;;20.30;99.90;;;;;;4995092;28;20082;-55
2024/03/08 03:35:15;;;;;;;2.22;1.02;;;20.30;99.90;;;;;;4960378;28;20023;-54
2024/03/08 03:37:42;;;;;;;;;;;20.20;99.90;;;;;;4976295;28;20022;-54
2024/03/08 03:40:09;;;;;;;2.28;1.30;;;20.30;99.90;;;;;;4971472;28;19905;-55
2024/03/08 03:42:35;;;;;;;2.55;1.15;;;20.30;99.90;;;;;;4975597;28;20027;-55
2024/03/08 03:45:03;;;;;;;2.33;1.20;;;20.30;99.90;;;;;;4976202;28;20360;-55
2024/03/08 03:47:29;;;;;;;2.45;1.23;;;20.20;99.90;;;;;;4976127;28;20518;-55
2024/03/08 03:49:55;;;;;;;2.85;1.40;;;20.20;99.90;;;;;;4959780;28;20026;-54
2024/03/08 03:52:21;;;;;;;1.98;1.02;;;20.20;99.90;;;;;;4984253;28;20033;-55
2024/03/08 03:54:47;;;;;;;2.83;1.10;;;20.20;99.90;;;;;;4993377;28;20069;-55
2024/03/08 03:57:13;;;;;;;1.75;1.20;;;20.20;99.90;;;;;;4980460;28;20061;-55
2024/03/08 03:59:39;;;;;;;1.98;1.23;;;20.20;99.90;;;;;;4957058;28;20035;-54
2024/03/08 04:02:05;;;;;;;2.05;1.30;;;20.20;99.90;;;;;;4944087;29;20049;-55
2024/03/08 04:04:31;;;;;;;1.98;0.90;;;20.20;99.90;;;;;;4953216;28;20031;-55
2024/03/08 04:06:57;;;;;;;2.28;1.20;;;20.20;99.90;;;;;;4955696;28;20090;-55
2024/03/08 04:09:23;;;;;;;1.52;0.95;;;20.10;99.90;;;;;;4954923;29;20034;-56
2024/03/08 04:11:52;;;;;;;2.63;1.58;;;20.10;99.90;;;;;;4953850;28;20027;-55
2024/03/08 04:14:18;;;;;;;2.10;0.93;;;20.10;99.90;;;;;;4939092;28;20031;-55
2024/03/08 04:16:44;;;;;;;2.47;1.08;;;20.10;99.90;;;;;;4938087;29;20027;-54
2024/03/08 04:19:10;;;;;;;2.10;1.17;;;20.10;99.90;;;;;;4953717;29;20486;-55
2024/03/08 04:21:35;;;;;;;4.57;1.15;;;20.10;99.90;;;;;;4953530;28;20066;-55
2024/03/08 04:24:01;;;;;;;4.05;1.20;;;20.10;99.90;;;;;;4955746;28;20559;-55
2024/03/08 04:26:27;;;;;;;1.42;1.15;;;20.10;99.90;;;;;;4954817;28;20482;-55
2024/03/08 04:28:53;;;;;;;3.95;1.63;;;20.10;99.90;;;;;;4954206;29;20070;-55
2024/03/08 04:31:19;;;;;;;3.13;1.38;;;20.10;99.90;;;;;;4953729;28;20019;-56
2024/03/08 04:33:44;;;;;;;2.55;1.08;;;20.10;99.90;;;;;;4955364;28;20033;-55
2024/03/08 04:36:13;;;;;;;2.03;1.27;;;20.10;99.90;;;;;;4954431;28;20129;-55
2024/03/08 04:38:40;;;;;;;1.77;1.35;;;20.10;99.90;;;;;;4953306;29;20035;-54
2024/03/08 04:41:12;;;;;;;2.85;1.13;;;20.10;99.90;;;;;;4954220;28;20016;-55
2024/03/08 04:43:37;;;;;;;2.22;1.23;;;20.10;99.90;;;;;;4952278;28;20093;-55
2024/03/08 04:46:03;;;;;;;1.60;1.00;;;20.00;99.90;;;;;;4953990;29;20031;-54
2024/03/08 04:48:29;;;;;;;2.47;1.00;;;20.10;99.90;;;;;;4953098;28;20052;-55
2024/03/08 04:50:55;;;;;;;3.75;1.55;;;20.00;99.90;;;;;;4955530;28;20023;-55
2024/03/08 04:53:21;;;;;;;2.65;1.20;;;20.10;99.90;;;;;;4955181;28;20028;-55
2024/03/08 04:55:47;;;;;;;2.63;1.63;;;20.00;99.90;;;;;;4953369;29;20106;-55
2024/03/08 04:58:13;;;;;;;2.00;1.20;;;20.00;99.90;;;;;;4935691;29;20135;-55
2024/03/08 05:00:39;;;;;;;1.50;1.00;;;20.00;99.90;;;;;;4956791;28;20030;-54
2024/03/08 05:03:04;;;;;;;1.83;1.50;;;20.00;99.90;;;;;;4973161;28;20554;-55
2024/03/08 05:05:31;;;;;;;1.73;1.00;;;20.00;99.90;;;;;;4971947;28;20388;-54
2024/03/08 05:07:56;;;;;;;1.50;0.80;;;20.00;99.90;;;;;;4972106;28;20057;-55
2024/03/08 05:10:22;;;;;;;2.50;1.05;;;20.00;99.90;;;;;;4974424;28;20027;-54
2024/03/08 05:12:48;;;;;;;4.13;1.13;;;20.00;99.90;;;;;;4973137;28;20561;-55
2024/03/08 05:15:14;;;;;;;1.63;0.90;;;20.00;99.90;;;;;;4971781;28;20348;-55
2024/03/08 05:17:40;;;;;;;1.30;0.95;;;20.00;99.90;;;;;;4973854;28;20027;-54
2024/03/08 05:20:12;;;;;;;1.88;0.90;;;20.00;99.90;;;;;;4974043;28;20033;-54
2024/03/08 05:22:37;;;;;;;2.10;0.90;;;20.00;99.90;;;;;;4956874;28;20029;-54
2024/03/08 05:25:04;;;;;;;1.48;1.00;;;20.00;99.90;;;;;;4956194;28;20098;-55
2024/03/08 05:27:30;;;;;;;2.28;0.88;;;20.00;99.90;;;;;;4973650;28;20109;-54
2024/03/08 05:29:55;;;;;;;4.95;0.90;;;20.00;99.90;;;;;;4973623;28;20479;-54
2024/03/08 05:32:21;;;;;;;1.67;0.82;;;20.00;99.90;;;;;;4973569;28;20023;-54
2024/03/08 05:34:47;;;;;;;1.52;0.90;;;20.00;99.90;;;;;;4973294;28;20035;-54
2024/03/08 05:37:12;;;;;;;1.95;0.82;;;20.00;99.90;;;;;;4973473;28;20030;-54
2024/03/08 05:39:38;;;;;;;2.83;1.10;;;19.90;99.90;;;;;;4973739;28;20022;-55
2024/03/08 05:42:04;;;;;;;1.23;0.82;;;20.00;99.90;;;;;;4973401;28;20471;-55
2024/03/08 05:44:30;;;;;;;2.75;1.10;;;19.90;99.90;;;;;;4973372;28;20034;-54
2024/03/08 05:46:56;;;;;;;2.08;1.15;;;19.90;99.90;;;;;;4973297;28;20031;-54
2024/03/08 05:49:22;;;;;;;1.77;0.60;;;19.90;99.90;;;;;;4973389;28;20031;-54
2024/03/08 05:51:48;;;;;;;1.60;0.85;;;19.90;99.90;;;;;;4973407;28;20550;-55
2024/03/08 05:54:14;;;;;;;1.05;0.70;;;19.90;99.90;;;;;;4973433;28;20460;-55
2024/03/08 05:56:43;;;;;;;2.85;0.90;;;19.90;99.90;;;;;;4973735;28;20019;-54
2024/03/08 05:59:10;;;;;;;2.08;0.70;;;19.90;99.90;;;;;;4973599;28;20034;-55
2024/03/08 06:01:36;;;;;;;1.50;0.80;;;19.90;99.90;;;;;;4971938;28;20050;-53
2024/03/08 06:04:03;;;;;;;2.22;0.77;;;19.90;99.90;;;;;;4955505;28;20051;-53
2024/03/08 06:06:29;;;;;;;1.77;0.88;;;19.90;99.90;;;;;;4973231;28;20147;-53
2024/03/08 06:08:59;;;;;;;1.67;1.10;;;19.90;99.90;;;;;;4973124;28;20127;-53
2024/03/08 06:11:30;;;;;;;2.75;0.70;;;19.90;99.90;;;;;;4972300;28;20023;-54
2024/03/08 06:13:59;;;;;;;1.58;0.68;;;19.90;99.90;;;;;;4973267;28;20026;-53
2024/03/08 06:16:28;;;;;;;1.00;0.73;;;19.90;99.90;;;;;;4973152;28;20041;-53
2024/03/08 06:18:57;;;;;;;1.35;0.70;;;19.90;99.90;;;;;;4955683;28;20397;-54
2024/03/08 06:21:24;;;;;;;1.88;0.73;;;19.90;99.90;;;;;;4973160;28;20026;-53
2024/03/08 06:23:50;;;;;;;2.60;1.15;;;19.90;99.90;;;;;;4973057;28;20102;-55
2024/03/08 06:26:16;;;;;;;2.03;1.23;;;19.90;99.90;;;;;;4973164;28;20110;-54
2024/03/08 06:28:42;;;;;;;1.90;1.25;;;19.90;99.90;;;;;;4973144;28;20438;-55
2024/03/08 06:31:08;;;;;;;2.65;0.60;;;19.90;99.90;;;;;;4955804;28;20026;-55
2024/03/08 06:33:35;;;;;;;1.58;0.77;;;19.90;99.90;;;;;;4972991;28;20498;-54
2024/03/08 06:36:01;;;;;;;1.80;1.17;;;19.90;99.90;;;;;;4972977;28;20069;-54
2024/03/08 06:38:26;;;;;;;2.13;1.02;;;19.90;99.90;;;;;;4972961;28;20479;-54
2024/03/08 06:40:54;;;;;;;1.65;0.80;;;19.90;99.90;;;;;;4972931;28;20026;-53
2024/03/08 06:43:20;;;;;;;0.95;0.52;;;19.80;99.90;;;;;;4972875;28;20102;-54
2024/03/08 06:45:48;;;;;;;2.28;1.00;;;19.80;99.90;;;;;;4974227;28;20459;-55
2024/03/08 06:48:20;;;;;;;1.58;0.90;;;19.80;99.90;;;;;;4959139;28;20035;-53
2024/03/08 06:50:47;;;;;;;1.20;0.65;;;19.80;99.90;;;;;;4976630;28;20027;-54
2024/03/08 06:53:13;;;;;;;1.40;1.05;;;19.80;99.90;;;;;;4976584;28;20031;-54
2024/03/08 06:55:39;;;;;;;1.48;0.73;;;19.80;99.90;;;;;;4976358;28;20030;-54
2024/03/08 06:58:06;;;;;;;0.85;0.63;;;19.80;99.90;;;;;;4958980;28;20371;-54
2024/03/08 07:00:32;;;;;;;5.18;1.00;;;19.80;99.90;;;;;;4958852;28;20027;-54
2024/03/08 07:03:00;;;;;;;1.52;0.80;;;19.80;99.90;;;;;;4976122;28;20039;-54
2024/03/08 07:05:27;;;;;;;1.30;0.60;;;19.80;99.90;;;;;;4976308;28;20019;-54
2024/03/08 07:07:54;;;;;;;1.83;1.05;;;19.80;99.90;;;;;;4976076;28;20098;-55
2024/03/08 07:10:26;;;;;;;2.37;0.77;;;19.80;99.90;;;;;;4976229;28;20023;-54
2024/03/08 07:12:55;;;;;;;1.60;0.60;;;19.80;99.90;;;;;;4976099;28;20398;-54
2024/03/08 07:15:23;;;;;;;1.58;0.75;;;19.80;99.90;;;;;;4975953;28;20022;-54
2024/03/08 07:17:49;;;;;;;2.47;0.60;;;19.80;99.90;;;;;;4976013;28;20033;-54
2024/03/08 07:20:18;;;;;;;2.85;0.82;;;19.80;99.90;;;;;;4976057;28;20023;-53
2024/03/08 07:22:47;;;;;;;3.00;0.80;;;19.80;99.90;;;;;;4976165;28;20030;-54
2024/03/08 07:25:23;;;;;;;4.10;1.15;;;19.80;99.90;;;;;;4976066;28;20482;-54
2024/03/08 07:27:51;;;;;;;3.83;0.98;;;19.80;99.90;;;;;;4975714;28;20138;-54
2024/03/08 07:30:52;;;;;;;;;;;19.80;99.90;;;;;;4976313;28;20023;-54
2024/03/08 07:33:03;;;;;;;1.33;0.73;;;19.80;99.90;;;;;;4975695;28;19909;-55
2024/03/08 07:35:29;;;;;;;1.70;0.80;;;19.80;99.90;;;;;;4958305;28;20376;-54
2024/03/08 07:37:55;;;;;;;3.17;0.90;;;19.80;99.90;;;;;;4975825;28;20478;-54
2024/03/08 07:40:24;;;;;;;3.63;1.02;;;19.80;99.90;;;;;;4975590;28;20026;-54
2024/03/08 07:42:51;;;;;;;1.50;0.90;;;19.80;99.90;;;;;;4975451;28;20035;-54
2024/03/08 07:45:16;;;;;;;2.10;0.95;;;19.80;99.90;;;;;;4975540;28;20027;-53
2024/03/08 07:47:43;;;;;;;3.50;1.00;;;19.80;99.90;;;;;;4975416;28;20094;-54
2024/03/08 07:50:09;;;;;;;1.27;0.80;;;19.80;99.90;;;;;;4942188;28;20053;-53
2024/03/08 07:52:38;;;;;;;1.25;0.82;;;19.90;99.90;;;;;;4975519;28;20360;-53
2024/03/08 07:55:05;;;;;;;1.42;0.80;;;19.90;99.90;;;;;;4975339;28;20034;-55
2024/03/08 07:57:31;;;;;;;1.67;1.10;;;19.90;99.90;;;;;;4975075;28;20027;-54
2024/03/08 07:59:58;;;;;;;3.10;1.15;;;19.90;99.90;;;;;;4957958;28;20042;-54
2024/03/08 08:02:23;;;;;;;1.70;1.05;;;19.90;99.90;;;;;;4975071;28;20045;-55
2024/03/08 08:04:49;;;;;;;3.20;1.35;;;19.90;99.90;;;;;;4975461;28;20114;-54
2024/03/08 08:07:15;;;;;;;3.08;1.00;;;19.90;99.90;;;;;;4975170;28;20490;-55
2024/03/08 08:09:42;;;;;;;2.75;1.30;;;19.90;99.90;;;;;;4975254;28;20039;-55
2024/03/08 08:12:11;;;;;;;2.33;0.95;;;20.00;99.90;;;;;;4975034;28;20034;-55
2024/03/08 08:14:41;;;;;;;1.77;1.10;;;20.00;99.90;;;;;;4974991;28;20078;-55
2024/03/08 08:17:08;;;;;;;3.15;1.20;;;20.00;99.90;;;;;;4974797;28;20501;-54
2024/03/08 08:19:35;;;;;;;4.05;1.42;;;20.00;99.90;;;;;;4957515;28;20113;-54
2024/03/08 08:22:04;;;;;;;2.38;1.23;;;20.00;99.90;;;;;;4974821;28;20125;-55
2024/03/08 08:24:30;;;;;;;2.85;1.00;;;20.00;99.90;;;;;;4974748;28;20447;-54
2024/03/08 08:26:56;;;;;;;2.58;0.90;;;20.00;99.90;;;;;;4974711;28;20103;-54
2024/03/08 08:29:22;;;;;;;1.90;1.30;;;20.10;99.90;;;;;;4974778;28;20045;-54
2024/03/08 08:31:49;;;;;;;2.45;1.50;;;20.10;99.90;;;;;;4974676;28;20564;-55
2024/03/08 08:34:18;;;;;;;1.85;0.93;;;20.10;99.90;;;;;;4974638;28;20121;-54
2024/03/08 08:36:45;;;;;;;2.35;1.08;;;20.10;99.90;;;;;;4974635;28;20027;-54
2024/03/08 08:39:13;;;;;;;3.38;1.00;;;20.10;99.90;;;;;;4974588;28;20106;-54
2024/03/08 08:41:41;;;;;;;2.05;1.42;;;20.10;99.90;;;;;;4974365;28;20073;-54
2024/03/08 08:44:09;;;;;;;2.13;1.33;;;20.10;99.90;;;;;;4974504;28;20081;-55
2024/03/08 08:46:37;;;;;;;1.95;1.30;;;20.10;99.90;;;;;;4974423;28;20031;-54
2024/03/08 08:49:04;;;;;;;4.07;1.35;;;20.20;99.90;;;;;;4974419;28;20113;-54
2024/03/08 08:51:31;;;;;;;5.20;1.70;;;20.10;99.90;;;;;;4956926;28;20109;-54
2024/03/08 08:53:56;;;;;;;2.58;1.50;;;20.10;99.90;;;;;;4974279;28;20027;-54
2024/03/08 08:56:22;;;;;;;3.00;1.73;;;20.10;99.90;;;;;;4974463;28;20030;-55
2024/03/08 08:58:49;;;;;;;4.05;1.75;;;20.20;99.90;;;;;;4974480;28;20447;-54
2024/03/08 09:01:16;;;;;;;3.22;1.48;;;20.20;99.90;;;;;;4973837;28;20055;-54
2024/03/08 09:03:42;;;;;;;;;;;20.20;99.90;;;;;;4974432;28;20098;-55
2024/03/08 09:06:11;;;;;;;1.85;1.35;;;20.20;99.90;;;;;;4973830;28;20262;-55
2024/03/08 09:08:40;;;;;;;2.45;1.65;;;20.20;99.90;;;;;;4955773;28;20039;-55
2024/03/08 09:11:06;;;;;;;3.00;1.60;;;20.20;99.90;;;;;;4973928;28;20427;-55
2024/03/08 09:13:33;;;;;;;3.55;1.63;;;20.20;99.90;;;;;;4973822;28;20031;-55
2024/03/08 09:16:00;;;;;;;2.20;1.45;;;20.20;99.90;;;;;;4973863;28;20384;-55
2024/03/08 09:18:26;;;;;;;2.53;1.80;;;20.20;99.90;;;;;;4973567;28;20070;-55
2024/03/08 09:20:53;;;;;;;2.15;1.80;;;20.30;99.90;;;;;;4973916;28;20027;-54
2024/03/08 09:23:22;;;;;;;3.30;1.83;;;20.30;99.90;;;;;;4973678;28;20050;-54
2024/03/08 09:25:48;;;;;;;3.47;1.70;;;20.30;99.90;;;;;;4973810;28;20065;-54
2024/03/08 09:28:14;;;;;;;3.38;1.80;;;20.20;99.90;;;;;;4973791;28;20034;-55
2024/03/08 09:30:40;;;;;;;2.55;1.65;;;20.20;99.90;;;;;;4973692;28;20530;-54
2024/03/08 09:33:06;;;;;;;2.88;1.45;;;20.20;99.90;;;;;;4973627;28;20030;-54
2024/03/08 09:35:32;;;;;;;2.58;1.60;;;20.20;99.90;;;;;;4956179;28;20462;-54
2024/03/08 09:37:58;;;;;;;3.60;2.10;;;20.20;99.90;;;;;;4973417;28;20078;-54
2024/03/08 09:40:25;;;;;;;6.00;1.52;;;20.20;99.90;;;;;;4973629;28;20023;-54
2024/03/08 09:42:52;;;;;;;2.08;1.40;;;20.20;99.90;;;;;;4973580;28;20029;-54
2024/03/08 09:45:22;;;;;;;3.53;1.90;;;20.10;99.90;;;;;;4956233;28;20023;-54
2024/03/08 09:47:48;;;;;;;2.35;1.63;;;20.20;99.90;;;;;;4973263;28;20297;-53
2024/03/08 09:50:15;;;;;;;2.80;2.00;;;20.20;99.90;;;;;;4973351;28;20142;-53
2024/03/08 09:52:49;;;;;;;2.80;1.40;;;20.20;99.90;;;;;;4973454;28;20030;-52
2024/03/08 09:55:17;;;;;;;2.63;1.70;;;20.20;99.90;;;;;;4956151;28;20386;-53
2024/03/08 10:00:27;;;;;;;3.53;1.95;;;20.20;99.90;;;;;;4973698;28;20077;-53
2024/03/08 10:02:53;;;;;;;4.30;1.65;;;20.20;99.90;;;;;;4973264;28;20082;-54
2024/03/08 10:05:21;;;;;;;3.35;1.90;;;20.30;99.90;;;;;;4973232;28;20023;-54
2024/03/08 10:07:47;;;;;;;2.45;1.67;;;20.20;99.90;;;;;;4973019;28;20073;-54
2024/03/08 10:10:13;;;;;;;3.35;1.63;;;20.30;99.90;;;;;;4956068;28;20070;-54
2024/03/08 10:12:39;;;;;;;3.95;1.63;;;20.30;99.90;;;;;;4973199;28;20035;-54
2024/03/08 10:15:08;;;;;;;2.65;1.50;;;20.30;99.90;;;;;;4973246;28;20023;-54
2024/03/08 10:17:35;;;;;;;3.95;1.65;;;20.40;99.90;;;;;;4972978;28;20042;-54
2024/03/08 10:20:02;;;;;;;2.43;1.60;;;20.40;99.90;;;;;;4974794;28;20475;-53
2024/03/08 10:22:29;;;;;;;3.05;1.60;;;20.40;99.90;;;;;;4977311;28;20094;-53
2024/03/08 10:24:55;;;;;;;4.72;1.80;;;20.50;99.90;;;;;;4977277;28;20027;-53
2024/03/08 10:27:20;;;;;;;5.60;1.70;;;20.50;99.90;;;;;;4976953;28;20042;-53
2024/03/08 10:29:48;;;;;;;4.20;1.70;;;20.40;99.90;;;;;;4959444;28;20034;-54
2024/03/08 10:32:13;;;;;;;2.42;1.60;;;20.50;99.90;;;;;;4976933;28;20070;-54
2024/03/08 10:34:41;;;;;;;2.45;1.80;;;20.50;99.90;;;;;;4976855;28;20087;-53
2024/03/08 10:37:12;;;;;;;2.28;1.50;;;20.50;99.90;;;;;;4976839;28;20026;-53
2024/03/08 10:39:43;;;;;;;2.15;1.60;;;20.50;99.90;;;;;;4976738;28;20468;-54
2024/03/08 10:42:15;;;;;;;2.88;1.73;;;20.60;99.90;;;;;;4976551;28;20534;-54
2024/03/08 10:44:54;;;;;;;2.95;1.50;;;20.60;99.90;;;;;;4976630;28;20432;-54
2024/03/08 10:47:30;;;;;;;3.90;1.58;;;20.60;99.90;;;;;;4976465;28;20050;-53
2024/03/08 10:50:22;;;;;;;3.60;1.77;;;20.70;99.90;;;;;;4976732;28;20078;-53
2024/03/08 10:52:51;;;;;;;4.40;1.67;;;20.70;99.90;;;;;;4976464;28;20029;-54
2024/03/08 10:55:22;;;;;;;2.25;1.10;;;20.80;99.90;;;;;;4976545;28;20027;-53
2024/03/08 10:57:48;;;;;;;3.90;1.40;;;20.80;99.90;;;;;;4976510;28;20501;-53
2024/03/08 11:00:15;;;;;;;3.38;1.60;;;20.90;99.90;;;;;;4976418;28;20027;-53
2024/03/08 11:02:45;;;;;;;3.88;2.08;;;20.90;99.90;;;;;;4976159;28;20046;-53
2024/03/08 11:05:32;;;;;;;3.58;2.22;;;20.90;99.90;;;;;;4976340;28;20027;-54
2024/03/08 11:07:59;;;;;;;3.53;1.83;;;20.90;99.90;;;;;;4976468;28;20059;-54
2024/03/08 11:10:26;;;;;;;8.35;1.70;;;20.90;99.90;;;;;;4968844;28;20026;-54
2024/03/08 11:12:52;;;;;;;4.38;1.75;;;21.00;99.90;;;;;;4968763;28;20023;-54
2024/03/08 11:15:20;;;;;;;7.10;2.53;;;21.00;99.90;;;;;;4976105;28;20372;-54
2024/03/08 11:17:46;;;;;;;5.38;2.50;;;21.00;99.90;;;;;;4970460;28;20449;-54
2024/03/08 11:20:17;;;;;;;7.53;2.95;;;21.00;99.90;;;;;;4955495;28;20114;-54
2024/03/08 11:22:52;;;;;;;10.15;4.07;;;21.10;99.90;;;;;;4956805;28;20023;-54
2024/03/08 11:25:44;;;;;;;9.02;3.90;;;21.10;99.90;;;;;;4957183;28;20106;-53
2024/03/08 11:28:21;;;;;;;10.15;5.75;;;21.20;99.90;;;;;;4965132;28;20042;-54
2024/03/08 11:30:59;;;;;;;10.80;7.43;;;21.20;99.90;;;;;;4963998;28;20030;-54
2024/03/08 11:33:29;;;;;;;11.15;5.95;;;21.20;99.90;;;;;;4965851;28;20154;-53
2024/03/08 11:36:16;;;;;;;12.40;8.60;;;21.20;99.90;;;;;;4964649;28;20023;-53
2024/03/08 11:38:48;;;;;;;11.25;7.70;;;21.20;99.90;;;;;;4966338;28;20030;-53
2024/03/08 11:41:19;;;;;;;16.58;8.45;;;21.30;99.90;;;;;;4966013;28;20452;-54
2024/03/08 11:43:46;;;;;;;13.73;8.13;;;21.30;99.90;;;;;;4965293;28;20117;-53
2024/03/08 11:46:12;;;;;;;11.05;7.13;;;21.30;99.90;;;;;;4956979;28;20023;-53
2024/03/08 11:48:41;;;;;;;12.57;7.37;;;21.30;99.90;;;;;;4965836;28;20082;-53
2024/03/08 11:51:11;;;;;;;16.15;7.00;;;21.30;99.90;;;;;;4958483;28;20272;-54
2024/03/08 11:53:38;;;;;;;10.80;4.38;;;21.30;99.90;;;;;;4969528;28;20027;-52
2024/03/08 11:56:12;;;;;;;7.70;4.13;;;21.30;99.90;;;;;;4956581;28;20041;-52
2024/03/08 11:58:38;;;;;;;8.32;4.43;;;21.30;99.90;;;;;;4965812;28;20041;-53
2024/03/08 12:01:16;;;;;;;13.27;4.70;;;21.30;99.90;;;;;;4960226;28;20035;-53
2024/03/08 12:03:42;;;;;;;11.60;4.45;;;21.30;99.90;;;;;;4975251;28;20280;-53
2024/03/08 12:06:13;;;;;;;10.13;4.65;;;21.30;99.90;;;;;;4957830;28;20026;-52
2024/03/08 12:08:39;;;;;;;8.77;4.53;;;21.30;99.90;;;;;;4957771;28;20406;-52
2024/03/08 12:11:05;;;;;;;10.88;4.32;;;21.30;99.90;;;;;;4975356;28;20027;-52
2024/03/08 12:13:33;;;;;;;10.60;4.30;;;21.30;99.90;;;;;;4974829;28;20031;-53
2024/03/08 12:16:06;;;;;;;9.38;4.38;;;21.30;99.90;;;;;;4973679;28;20029;-53
2024/03/08 12:18:38;;;;;;;7.55;4.40;;;21.30;99.90;;;;;;4957112;28;20023;-53
2024/03/08 12:21:13;;;;;;;10.52;4.32;;;21.30;99.90;;;;;;4972173;28;20019;-53
2024/03/08 12:23:39;;;;;;;9.07;3.75;;;21.30;99.90;;;;;;4974078;28;20495;-53
2024/03/08 12:26:16;;;;;;;6.35;3.33;;;21.30;99.90;;;;;;4957815;28;20066;-53
2024/03/08 12:28:44;;;;;;;7.72;3.08;;;21.30;99.90;;;;;;4974705;28;20039;-53
2024/03/08 12:31:12;;;;;;;6.53;3.25;;;21.30;99.90;;;;;;4956743;28;20475;-53
2024/03/08 12:33:50;;;;;;;9.57;3.88;;;21.30;99.90;;;;;;4974667;28;20034;-55
2024/03/08 12:36:17;;;;;;;31.67;4.63;;;21.30;99.90;;;;;;4974757;28;20019;-49
2024/03/08 12:38:49;;;;;;;12.13;4.65;;;21.30;99.90;;;;;;4974726;28;20030;-50
2024/03/08 12:41:19;;;;;;;11.15;4.45;;;21.40;99.90;;;;;;4957154;28;20562;-53
2024/03/08 12:43:48;;;;;;;8.82;3.65;;;21.40;99.90;;;;;;4973411;28;20130;-55
2024/03/08 12:46:26;;;;;;;11.48;3.28;;;21.40;99.90;;;;;;4968518;28;20050;-58
2024/03/08 12:48:53;;;;;;;5.72;2.72;;;21.40;99.90;;;;;;4973729;28;20066;-57
2024/03/08 12:51:20;;;;;;;7.82;3.03;;;21.40;99.90;;;;;;4973241;28;20022;-54
2024/03/08 12:53:47;;;;;;;15.25;2.70;;;21.40;99.90;;;;;;4962951;28;20496;-54
2024/03/08 12:56:33;;;;;;;6.50;1.90;;;21.40;99.90;;;;;;4953778;28;20475;-54